Flight Track Log - Related Links

Times and Time Zones

All times are in EDT time to prevent confusion due to time zone crossing. See the N502QS flight status page for this flight to view local times or setup timezone preferences in your user account.

Time Position Orientation Groundspeed Altitude Reporting Facility
EDT Latitude Longitude Course Direction KTS MPH feet Rate Location/Type
Wed 10:19:47 PM 39.6000 -119.7333 21° North 275 316 9,400  Level Northern Cal TRACON
Wed 10:20:42 PM 39.6550 -119.7753 330° Northwest 301 346 12,600 3,155 Climbing Oakland Center
Wed 10:21:43 PM 39.6208 -119.8594 242° Southwest 288 331 15,500 2,164 Climbing Oakland Center
Wed 10:22:44 PM 39.5192 -119.8742 186° South 345 397 17,000 1,268 Climbing Oakland Center
Wed 10:23:46 PM 39.4128 -119.8969 189° South 378 435 18,100 1,122 Climbing Oakland Center
Wed 10:24:00 PM 38.9830 -119.6333 180° South  Level FlightAware Approximate
Wed 10:24:47 PM 39.3078 -119.9428 199° South 394 453 19,300  Level Oakland Center
Wed 10:25:48 PM 39.1800 -119.9967 198° South 400 460 22,400 2,705 Climbing Oakland Center
Wed 10:26:49 PM 39.0667 -120.0186 189° South 416 479 24,800 1,415 Climbing Oakland Center
Wed 10:27:51 PM 38.9442 -120.0064 176° South 425 489 25,300 390 Climbing Oakland Center
Wed 10:28:52 PM 38.8261 -119.9894 174° South 425 489 25,600 393 Climbing Oakland Center
Wed 10:29:53 PM 38.7056 -119.9722 174° South 431 496 26,100 683 Climbing Oakland Center
Wed 10:30:55 PM 38.5839 -119.9567 174° South 435 501 27,000 1,512 Climbing Oakland Center
Wed 10:31:56 PM 38.4603 -119.9389 174° South 442 509 29,200 2,213 Climbing Oakland Center
Wed 10:32:57 PM 38.3358 -119.9219 174° South 445 512 31,500 2,341 Climbing Oakland Center
Wed 10:33:59 PM 38.2094 -119.9053 174° South 454 522 34,000 1,561 Climbing Oakland Center
Wed 10:35:00 PM 38.0844 -119.8883 174° South 452 520 34,700 1,377 Climbing Oakland Center
Wed 10:36:01 PM 37.9611 -119.8733 175° South 446 513 36,800 1,770 Climbing Oakland Center
Wed 10:37:02 PM 37.8408 -119.8564 174° South 439 505 38,300 1,024 Climbing Oakland Center
Wed 10:38:04 PM 37.7197 -119.8394 174° South 437 503 38,900 293 Climbing Oakland Center
Wed 10:39:05 PM 37.5964 -119.8247 175° South 440 506 38,900  Level Oakland Center
Wed 10:40:06 PM 37.4497 -119.8047 174° South 442 509 38,900  Level Oakland Center
Wed 10:41:07 PM 37.3350 -119.7886 174° South 433 498 38,900  Level Oakland Center
Wed 10:42:09 PM 37.2203 -119.7747 174° South 416 479 38,900  Level Oakland Center
Wed 10:43:10 PM 37.1092 -119.7586 173° South 405 466 38,900  Level Oakland Center
Wed 10:44:11 PM 36.9947 -119.7453 175° South 412 474 38,900  Level Oakland Center
Wed 10:45:12 PM 36.8828 -119.7300 174° South 406 467 38,900  Level Oakland Center
Wed 10:46:13 PM 36.7700 -119.7164 174° South 407 468 38,900  Level Oakland Center
Wed 10:47:15 PM 36.6572 -119.7014 174° South 408 470 38,900  Level Oakland Center
Wed 10:48:16 PM 36.5436 -119.6858 174° South 411 473 38,900  Level Oakland Center
Wed 10:49:17 PM 36.4081 -119.6689 174° South 410 472 38,900  Level Oakland Center
Wed 10:50:18 PM 36.2967 -119.6561 175° South 404 465 38,900  Level Oakland Center
Wed 10:51:19 PM 36.1836 -119.6408 174° South 407 468 38,900  Level Oakland Center
Wed 10:52:21 PM 36.0722 -119.6264 174° South 403 464 38,900  Level Oakland Center
Wed 10:53:22 PM 35.9597 -119.6161 176° South 407 468 38,900  Level Oakland Center
Wed 10:54:23 PM 35.8464 -119.6194 181° South 407 468 38,900  Level Oakland Center
Wed 10:55:24 PM 35.7336 -119.6236 182° South 403 464 38,900  Level Oakland Center
Wed 10:56:15 PM 35.6431 -119.6275 182° South 406 467 38,900  Level Los Angeles Center
Wed 10:57:17 PM 35.5322 -119.6322 182° South 401 461 38,900  Level Los Angeles Center
Wed 10:58:19 PM 35.3964 -119.6358 181° South 402 463 38,900  Level Los Angeles Center
Wed 10:59:20 PM 35.2842 -119.6381 181° South 402 463 38,900 -537 Level Los Angeles Center
Wed 11:00:22 PM 35.1797 -119.5772 155° Southeast 420 483 37,800 -1,548 Descending Los Angeles Center
Wed 11:01:24 PM 35.0828 -119.4922 144° Southeast 426 490 35,700 -1,984 Descending Los Angeles Center
Wed 11:02:26 PM 34.9867 -119.4108 145° Southeast 420 483 33,700 -1,951 Descending Los Angeles Center
Wed 11:03:27 PM 34.8892 -119.3281 145° Southeast 425 489 31,700 -1,951 Descending Los Angeles Center
Wed 11:04:29 PM 34.7894 -119.2425 145° Southeast 435 501 29,700 -1,887 Descending Los Angeles Center
Wed 11:05:31 PM 34.6914 -119.1606 145° Southeast 430 495 27,800 -1,902 Descending Los Angeles Center
Wed 11:06:32 PM 34.5800 -119.0706 146° Southeast 421 484 25,800 -1,839 Descending Los Angeles Center
Wed 11:07:35 PM 34.4861 -118.9922 145° Southeast 413 475 24,000 -1,742 Descending Los Angeles Center
Wed 11:08:36 PM 34.3958 -118.9142 144° Southeast 397 457 22,200 -1,721 Descending Los Angeles Center
Wed 11:09:37 PM 34.2992 -118.8594 155° Southeast 381 438 20,500 -1,610 Descending Los Angeles Center
Wed 11:10:39 PM 34.2011 -118.8242 163° South 369 425 18,900 -1,694 Descending Los Angeles Center
Wed 11:11:41 PM 34.0886 -118.7833 163° South 355 409 17,000 -1,645 Descending Los Angeles Center
Wed 11:12:43 PM 33.9969 -118.7497 163° South 343 395 15,500 -1,415 Descending Los Angeles Center
Wed 11:13:44 PM 33.9067 -118.7167 163° South 340 391 14,100 -732 Descending Los Angeles Center
Wed 11:14:46 PM 33.8183 -118.6850 163° South 337 388 14,000 -242 Descending Los Angeles Center
Wed 11:15:48 PM 33.7294 -118.6528 163° South 337 388 13,600 -933 Descending Los Angeles Center
Wed 11:17:01 PM 33.6458 -118.6244 164° South 317 365 11,900 -1,673 Descending Los Angeles Center
Wed 11:18:15 PM 33.5644 -118.5517 143° Southeast 287 330 9,500 -1,865 Descending Los Angeles Center
Wed 11:19:29 PM 33.5667 -118.4372 89° East 292 336 7,300 -1,708 Descending Los Angeles Center
Wed 11:20:32 PM 33.5783 -118.3253 83° East 289 333 5,600 -1,113 Descending Los Angeles Center
Wed 11:21:33 PM 33.5875 -118.2347 83° East 283 326 5,000 -341 Descending Los Angeles Center
Wed 11:22:35 PM 33.5975 -118.1239 84° East 282 325 4,900 -48 Descending Los Angeles Center
Wed 11:23:37 PM 33.6361 -118.0561 56° Northeast 267 307 4,900 118 Level Los Angeles Center
Wed 11:24:17 PM 33.6667 -118.0167 47° Northeast 261 300 5,100 -360 Climbing Southern California TRACON
Wed 11:25:17 PM 33.7167 -117.9500 48° Northeast 239 275 4,300 -905 Descending Southern California TRACON
Wed 11:26:23 PM 33.7667 -117.9000 40° Northeast 187 215 3,200 -1,140 Descending Southern California TRACON
Wed 11:27:18 PM 33.7667 -117.8500 90° East 176 203 2,000 -1,096 Descending Southern California TRACON
Wed 11:28:18 PM 33.7333 -117.8333 157° South 149 171 1,100 -750 Descending Southern California TRACON
Wed 11:29:18 PM 33.7000 -117.8500 203° Southwest 118 136 500 -600 Descending Southern California TRACON
Wed 11:31:00 PM 33.6757 -117.8682 132° Southeast  Level Estimated
Wed 11:38:00 PM 33.6757 -117.8682 132° Southeast  Level Estimated

Login

Don't have an account? Register now (free) for customized features, flight alerts, and more!